sensor_id;sensor_type;location;lat;lon;timestamp;pressure;altitude;pressure_sealevel;temperature;humidity
62978;BME280;49073;42.352;23.808;2023-02-03T00:00:05;94865.91;;;1.76;78.17
62978;BME280;49073;42.352;23.808;2023-02-03T00:03:06;94870.59;;;1.65;80.07
62978;BME280;49073;42.352;23.808;2023-02-03T00:06:07;94878.34;;;1.56;82.03
62978;BME280;49073;42.352;23.808;2023-02-03T00:09:08;94878.34;;;1.56;83.00
62978;BME280;49073;42.352;23.808;2023-02-03T00:12:08;94884.56;;;1.47;84.52
62978;BME280;49073;42.352;23.808;2023-02-03T00:15:09;94877.19;;;1.49;84.78
62978;BME280;49073;42.352;23.808;2023-02-03T00:18:10;94889.13;;;1.41;85.93
62978;BME280;49073;42.352;23.808;2023-02-03T00:21:10;94881.03;;;1.37;86.49
62978;BME280;49073;42.352;23.808;2023-02-03T00:24:11;94886.13;;;1.34;87.06
62978;BME280;49073;42.352;23.808;2023-02-03T00:27:11;94875.88;;;1.32;87.64
62978;BME280;49073;42.352;23.808;2023-02-03T00:30:13;94877.16;;;1.35;88.46
62978;BME280;49073;42.352;23.808;2023-02-03T00:33:13;94881.53;;;1.39;88.24
62978;BME280;49073;42.352;23.808;2023-02-03T00:36:14;94873.16;;;1.37;88.70
62978;BME280;49073;42.352;23.808;2023-02-03T00:39:15;94871.72;;;1.45;89.09
62978;BME280;49073;42.352;23.808;2023-02-03T00:42:15;94884.28;;;1.48;89.14
62978;BME280;49073;42.352;23.808;2023-02-03T00:45:16;94873.69;;;1.53;88.72
62978;BME280;49073;42.352;23.808;2023-02-03T00:48:17;94868.75;;;1.52;89.20
62978;BME280;49073;42.352;23.808;2023-02-03T00:51:17;94877.88;;;1.54;89.47
62978;BME280;49073;42.352;23.808;2023-02-03T00:54:18;94876.81;;;1.55;89.44
62978;BME280;49073;42.352;23.808;2023-02-03T00:57:18;94892.97;;;1.49;89.90
62978;BME280;49073;42.352;23.808;2023-02-03T01:00:19;94892.25;;;1.43;89.99
62978;BME280;49073;42.352;23.808;2023-02-03T01:03:20;94892.44;;;1.47;91.13
62978;BME280;49073;42.352;23.808;2023-02-03T01:06:22;94902.94;;;1.47;91.02
62978;BME280;49073;42.352;23.808;2023-02-03T01:09:24;94888.25;;;1.45;90.86
62978;BME280;49073;42.352;23.808;2023-02-03T01:12:24;94890.38;;;1.43;91.21
62978;BME280;49073;42.352;23.808;2023-02-03T01:15:25;94884.88;;;1.45;90.95
62978;BME280;49073;42.352;23.808;2023-02-03T01:18:26;94880.84;;;1.34;90.84
62978;BME280;49073;42.352;23.808;2023-02-03T01:21:26;94896.88;;;1.32;90.97
62978;BME280;49073;42.352;23.808;2023-02-03T01:24:28;94906.72;;;1.26;90.72
62978;BME280;49073;42.352;23.808;2023-02-03T01:27:31;94910.47;;;1.20;90.31
62978;BME280;49073;42.352;23.808;2023-02-03T01:30:32;94916.22;;;1.22;90.49
62978;BME280;49073;42.352;23.808;2023-02-03T01:33:33;94911.34;;;1.15;90.90
62978;BME280;49073;42.352;23.808;2023-02-03T01:36:34;94921.63;;;1.12;90.81
62978;BME280;49073;42.352;23.808;2023-02-03T01:39:34;94923.66;;;1.15;91.27
62978;BME280;49073;42.352;23.808;2023-02-03T01:42:35;94925.88;;;1.08;91.88
62978;BME280;49073;42.352;23.808;2023-02-03T01:45:36;94923.25;;;1.08;92.43
62978;BME280;49073;42.352;23.808;2023-02-03T01:48:39;94916.41;;;0.93;93.36
62978;BME280;49073;42.352;23.808;2023-02-03T01:51:41;94905.53;;;0.99;94.17
62978;BME280;49073;42.352;23.808;2023-02-03T01:54:44;94901.44;;;0.93;95.04
62978;BME280;49073;42.352;23.808;2023-02-03T01:57:55;94904.28;;;0.97;95.41
62978;BME280;49073;42.352;23.808;2023-02-03T02:00:57;94894.28;;;0.80;96.41
62978;BME280;49073;42.352;23.808;2023-02-03T02:04:00;94913.72;;;0.79;96.94
62978;BME280;49073;42.352;23.808;2023-02-03T02:07:02;94911.00;;;0.84;96.86
62978;BME280;49073;42.352;23.808;2023-02-03T02:10:04;94913.22;;;0.77;96.56
62978;BME280;49073;42.352;23.808;2023-02-03T02:13:06;94913.94;;;0.63;96.72
62978;BME280;49073;42.352;23.808;2023-02-03T02:19:57;94912.72;;;0.75;95.81
62978;BME280;49073;42.352;23.808;2023-02-03T02:23:41;94930.50;;;0.78;95.18
62978;BME280;49073;42.352;23.808;2023-02-03T02:26:58;94929.44;;;0.79;94.18
62978;BME280;49073;42.352;23.808;2023-02-03T02:33:20;94928.66;;;0.78;93.76
62978;BME280;49073;42.352;23.808;2023-02-03T02:36:29;94935.88;;;0.86;93.06
62978;BME280;49073;42.352;23.808;2023-02-03T02:39:59;94935.19;;;0.81;92.22
62978;BME280;49073;42.352;23.808;2023-02-03T02:46:23;94948.38;;;0.76;91.08
62978;BME280;49073;42.352;23.808;2023-02-03T02:49:38;94952.50;;;0.82;91.15
62978;BME280;49073;42.352;23.808;2023-02-03T02:52:43;94966.59;;;0.86;90.30
62978;BME280;49073;42.352;23.808;2023-02-03T02:55:46;94968.44;;;0.85;89.33
62978;BME280;49073;42.352;23.808;2023-02-03T02:58:48;94969.44;;;0.90;89.35
62978;BME280;49073;42.352;23.808;2023-02-03T03:01:50;94974.63;;;0.76;88.86
62978;BME280;49073;42.352;23.808;2023-02-03T03:04:51;94969.88;;;0.78;88.76
62978;BME280;49073;42.352;23.808;2023-02-03T03:07:58;94976.09;;;0.82;88.07
62978;BME280;49073;42.352;23.808;2023-02-03T03:11:02;94983.63;;;0.89;87.85
62978;BME280;49073;42.352;23.808;2023-02-03T03:14:04;94987.25;;;0.93;87.50
62978;BME280;49073;42.352;23.808;2023-02-03T03:17:08;94984.16;;;0.85;87.10
62978;BME280;49073;42.352;23.808;2023-02-03T03:20:17;94983.09;;;0.86;86.48
62978;BME280;49073;42.352;23.808;2023-02-03T03:23:26;94978.66;;;0.87;85.82
62978;BME280;49073;42.352;23.808;2023-02-03T03:26:34;94982.41;;;0.81;85.16
62978;BME280;49073;42.352;23.808;2023-02-03T03:30:08;94970.34;;;0.80;85.01
62978;BME280;49073;42.352;23.808;2023-02-03T03:33:07;94974.97;;;0.88;84.62
62978;BME280;49073;42.352;23.808;2023-02-03T03:36:18;94974.31;;;0.77;83.70
62978;BME280;49073;42.352;23.808;2023-02-03T03:39:32;94978.16;;;0.85;83.89
62978;BME280;49073;42.352;23.808;2023-02-03T03:42:43;94970.84;;;0.82;83.16
62978;BME280;49073;42.352;23.808;2023-02-03T03:45:53;94986.66;;;0.77;83.51
62978;BME280;49073;42.352;23.808;2023-02-03T03:49:01;94999.78;;;0.77;83.43
62978;BME280;49073;42.352;23.808;2023-02-03T03:52:05;95000.59;;;0.72;83.18
62978;BME280;49073;42.352;23.808;2023-02-03T03:55:09;95009.28;;;0.72;83.90
62978;BME280;49073;42.352;23.808;2023-02-03T03:58:17;95005.59;;;0.74;83.72
62978;BME280;49073;42.352;23.808;2023-02-03T04:01:20;95001.66;;;0.71;83.10
62978;BME280;49073;42.352;23.808;2023-02-03T04:04:23;95009.97;;;0.78;83.10
62978;BME280;49073;42.352;23.808;2023-02-03T04:07:45;95008.78;;;0.70;83.28
62978;BME280;49073;42.352;23.808;2023-02-03T04:10:46;95013.66;;;0.77;83.23
62978;BME280;49073;42.352;23.808;2023-02-03T04:13:46;95009.28;;;0.72;82.16
62978;BME280;49073;42.352;23.808;2023-02-03T04:16:47;95008.97;;;0.74;82.45
62978;BME280;49073;42.352;23.808;2023-02-03T04:19:47;95011.91;;;0.72;82.24
62978;BME280;49073;42.352;23.808;2023-02-03T04:22:48;95007.97;;;0.70;81.88
62978;BME280;49073;42.352;23.808;2023-02-03T04:25:49;95005.03;;;0.77;82.29
62978;BME280;49073;42.352;23.808;2023-02-03T04:28:49;95015.34;;;0.68;81.89
62978;BME280;49073;42.352;23.808;2023-02-03T04:31:50;95010.28;;;0.77;80.89
62978;BME280;49073;42.352;23.808;2023-02-03T04:34:50;95012.97;;;0.71;79.59
62978;BME280;49073;42.352;23.808;2023-02-03T04:37:51;95016.09;;;0.74;80.25
62978;BME280;49073;42.352;23.808;2023-02-03T04:40:52;95016.66;;;0.70;79.53
62978;BME280;49073;42.352;23.808;2023-02-03T04:43:52;95013.97;;;0.76;79.20
62978;BME280;49073;42.352;23.808;2023-02-03T04:46:53;95014.78;;;0.71;78.90
62978;BME280;49073;42.352;23.808;2023-02-03T04:49:53;95029.03;;;0.65;79.11
62978;BME280;49073;42.352;23.808;2023-02-03T04:52:54;95037.97;;;0.64;78.83
62978;BME280;49073;42.352;23.808;2023-02-03T04:55:54;95030.81;;;0.69;79.34
62978;BME280;49073;42.352;23.808;2023-02-03T04:58:55;95046.06;;;0.67;77.65
62978;BME280;49073;42.352;23.808;2023-02-03T05:01:56;95040.00;;;0.67;78.42
62978;BME280;49073;42.352;23.808;2023-02-03T05:04:56;95053.13;;;0.67;77.59
62978;BME280;49073;42.352;23.808;2023-02-03T05:07:57;95045.13;;;0.77;76.77
62978;BME280;49073;42.352;23.808;2023-02-03T05:10:57;95038.06;;;0.78;76.47
62978;BME280;49073;42.352;23.808;2023-02-03T05:13:58;95039.69;;;0.74;76.47
62978;BME280;49073;42.352;23.808;2023-02-03T05:16:58;95041.44;;;0.59;77.24
62978;BME280;49073;42.352;23.808;2023-02-03T05:19:59;95036.91;;;0.65;76.69
62978;BME280;49073;42.352;23.808;2023-02-03T05:22:59;95037.47;;;0.62;76.05
62978;BME280;49073;42.352;23.808;2023-02-03T05:26:00;95045.31;;;0.62;76.29
62978;BME280;49073;42.352;23.808;2023-02-03T05:29:01;95044.75;;;0.65;76.74
62978;BME280;49073;42.352;23.808;2023-02-03T05:32:02;95043.03;;;0.55;77.12
62978;BME280;49073;42.352;23.808;2023-02-03T05:35:02;95037.00;;;0.54;77.06
62978;BME280;49073;42.352;23.808;2023-02-03T05:38:03;95029.34;;;0.58;76.81
62978;BME280;49073;42.352;23.808;2023-02-03T05:41:03;95022.06;;;0.55;76.76
62978;BME280;49073;42.352;23.808;2023-02-03T05:44:24;95026.28;;;0.51;76.77
62978;BME280;49073;42.352;23.808;2023-02-03T05:47:25;95018.44;;;0.51;76.68
62978;BME280;49073;42.352;23.808;2023-02-03T05:50:25;95030.28;;;0.48;76.92
62978;BME280;49073;42.352;23.808;2023-02-03T05:53:27;95027.66;;;0.48;76.63
62978;BME280;49073;42.352;23.808;2023-02-03T05:56:27;95025.78;;;0.49;77.12
62978;BME280;49073;42.352;23.808;2023-02-03T05:59:27;95031.03;;;0.49;76.76
62978;BME280;49073;42.352;23.808;2023-02-03T06:02:28;95035.00;;;0.46;77.02
62978;BME280;49073;42.352;23.808;2023-02-03T06:05:30;95050.19;;;0.49;76.79
62978;BME280;49073;42.352;23.808;2023-02-03T06:08:31;95044.66;;;0.51;76.83
62978;BME280;49073;42.352;23.808;2023-02-03T06:11:32;95050.69;;;0.51;76.39
62978;BME280;49073;42.352;23.808;2023-02-03T06:14:33;95050.19;;;0.49;76.03
62978;BME280;49073;42.352;23.808;2023-02-03T06:17:34;95054.94;;;0.47;76.06
62978;BME280;49073;42.352;23.808;2023-02-03T06:20:36;95057.25;;;0.49;76.03
62978;BME280;49073;42.352;23.808;2023-02-03T06:23:36;95059.31;;;0.52;75.76
62978;BME280;49073;42.352;23.808;2023-02-03T06:26:36;95065.56;;;0.56;74.77
62978;BME280;49073;42.352;23.808;2023-02-03T06:29:37;95073.13;;;0.63;74.79
62978;BME280;49073;42.352;23.808;2023-02-03T06:32:38;95076.78;;;0.62;74.25
62978;BME280;49073;42.352;23.808;2023-02-03T06:35:38;95085.09;;;0.69;74.51
62978;BME280;49073;42.352;23.808;2023-02-03T06:38:39;95086.16;;;0.68;73.68
62978;BME280;49073;42.352;23.808;2023-02-03T06:41:39;95093.22;;;0.72;73.60
62978;BME280;49073;42.352;23.808;2023-02-03T06:44:40;95087.66;;;0.74;73.25
62978;BME280;49073;42.352;23.808;2023-02-03T06:47:41;95085.28;;;0.78;73.41
62978;BME280;49073;42.352;23.808;2023-02-03T06:50:43;95106.47;;;0.81;73.24
62978;BME280;49073;42.352;23.808;2023-02-03T06:53:44;95104.66;;;0.82;72.88
62978;BME280;49073;42.352;23.808;2023-02-03T06:56:45;95110.16;;;0.80;72.20
62978;BME280;49073;42.352;23.808;2023-02-03T06:59:46;95115.31;;;0.91;72.67
62978;BME280;49073;42.352;23.808;2023-02-03T07:02:55;95127.56;;;0.95;72.30
62978;BME280;49073;42.352;23.808;2023-02-03T07:05:56;95120.16;;;1.02;72.18
62978;BME280;49073;42.352;23.808;2023-02-03T07:08:57;95129.63;;;1.23;71.32
62978;BME280;49073;42.352;23.808;2023-02-03T07:11:58;95136.38;;;1.29;70.81
62978;BME280;49073;42.352;23.808;2023-02-03T07:14:58;95138.44;;;1.32;70.56
62978;BME280;49073;42.352;23.808;2023-02-03T07:17:59;95147.81;;;1.38;70.70
62978;BME280;49073;42.352;23.808;2023-02-03T07:21:04;95154.47;;;1.30;69.64
62978;BME280;49073;42.352;23.808;2023-02-03T07:24:04;95163.06;;;1.36;69.82
62978;BME280;49073;42.352;23.808;2023-02-03T07:27:05;95161.44;;;1.40;68.94
62978;BME280;49073;42.352;23.808;2023-02-03T07:30:06;95173.22;;;1.43;69.50
62978;BME280;49073;42.352;23.808;2023-02-03T07:33:07;95174.41;;;1.32;68.92
62978;BME280;49073;42.352;23.808;2023-02-03T07:36:09;95167.53;;;1.36;69.52
62978;BME280;49073;42.352;23.808;2023-02-03T07:39:09;95175.91;;;1.38;69.22
62978;BME280;49073;42.352;23.808;2023-02-03T07:42:10;95173.22;;;1.43;69.33
62978;BME280;49073;42.352;23.808;2023-02-03T07:45:12;95179.81;;;1.40;68.86
62978;BME280;49073;42.352;23.808;2023-02-03T07:48:12;95180.66;;;1.36;69.70
62978;BME280;49073;42.352;23.808;2023-02-03T07:51:13;95185.91;;;1.36;68.71
62978;BME280;49073;42.352;23.808;2023-02-03T07:54:14;95190.97;;;1.51;68.90
62978;BME280;49073;42.352;23.808;2023-02-03T07:57:15;95190.53;;;1.44;68.64
62978;BME280;49073;42.352;23.808;2023-02-03T08:00:16;95191.09;;;1.41;67.89
62978;BME280;49073;42.352;23.808;2023-02-03T08:03:16;95187.13;;;1.43;67.93
62978;BME280;49073;42.352;23.808;2023-02-03T08:06:17;95199.09;;;1.55;68.42
62978;BME280;49073;42.352;23.808;2023-02-03T08:09:17;95203.78;;;1.58;67.65
62978;BME280;49073;42.352;23.808;2023-02-03T08:12:18;95197.16;;;1.60;67.65
62978;BME280;49073;42.352;23.808;2023-02-03T08:15:18;95198.66;;;1.67;67.75
62978;BME280;49073;42.352;23.808;2023-02-03T08:18:19;95204.63;;;1.72;66.75
62978;BME280;49073;42.352;23.808;2023-02-03T08:21:19;95192.84;;;1.70;66.87
62978;BME280;49073;42.352;23.808;2023-02-03T08:24:20;95194.31;;;1.76;67.25
62978;BME280;49073;42.352;23.808;2023-02-03T08:27:21;95174.91;;;1.77;66.30
62978;BME280;49073;42.352;23.808;2023-02-03T08:30:23;95198.03;;;1.75;66.01
62978;BME280;49073;42.352;23.808;2023-02-03T08:33:24;95188.53;;;1.79;65.80
62978;BME280;49073;42.352;23.808;2023-02-03T08:36:24;95199.75;;;1.85;65.94
62978;BME280;49073;42.352;23.808;2023-02-03T08:39:25;95195.81;;;2.01;65.12
62978;BME280;49073;42.352;23.808;2023-02-03T08:42:26;95203.00;;;2.15;65.44
62978;BME280;49073;42.352;23.808;2023-02-03T08:45:27;95193.50;;;2.19;64.45
62978;BME280;49073;42.352;23.808;2023-02-03T08:48:27;95199.16;;;2.26;62.63
62978;BME280;49073;42.352;23.808;2023-02-03T08:51:28;95202.56;;;2.27;63.22
62978;BME280;49073;42.352;23.808;2023-02-03T08:54:29;95197.94;;;2.18;62.10
62978;BME280;49073;42.352;23.808;2023-02-03T08:57:33;95205.06;;;2.18;62.28
62978;BME280;49073;42.352;23.808;2023-02-03T09:00:34;95198.03;;;2.13;62.43
62978;BME280;49073;42.352;23.808;2023-02-03T09:03:34;95196.78;;;2.11;63.09
62978;BME280;49073;42.352;23.808;2023-02-03T09:06:36;95207.69;;;2.18;62.96
62978;BME280;49073;42.352;23.808;2023-02-03T09:09:36;95207.91;;;2.22;63.13
62978;BME280;49073;42.352;23.808;2023-02-03T09:12:37;95204.09;;;2.14;61.97
62978;BME280;49073;42.352;23.808;2023-02-03T09:15:37;95206.63;;;2.19;61.39
62978;BME280;49073;42.352;23.808;2023-02-03T09:18:38;95209.19;;;2.24;60.67
62978;BME280;49073;42.352;23.808;2023-02-03T09:21:39;95223.66;;;2.41;60.83
62978;BME280;49073;42.352;23.808;2023-02-03T09:24:40;95206.69;;;2.66;59.89
62978;BME280;49073;42.352;23.808;2023-02-03T09:27:41;95202.13;;;2.86;61.61
62978;BME280;49073;42.352;23.808;2023-02-03T09:30:41;95211.66;;;3.15;59.97
62978;BME280;49073;42.352;23.808;2023-02-03T09:33:42;95209.88;;;3.52;57.54
62978;BME280;49073;42.352;23.808;2023-02-03T09:36:43;95199.50;;;3.84;57.09
62978;BME280;49073;42.352;23.808;2023-02-03T09:39:45;95197.94;;;4.42;59.45
62978;BME280;49073;42.352;23.808;2023-02-03T09:46:37;95203.91;;;4.57;55.34
62978;BME280;49073;42.352;23.808;2023-02-03T09:49:44;95180.34;;;4.37;53.78
62978;BME280;49073;42.352;23.808;2023-02-03T09:52:47;95185.81;;;4.18;54.56
62978;BME280;49073;42.352;23.808;2023-02-03T09:55:48;95174.69;;;3.85;54.54
62978;BME280;49073;42.352;23.808;2023-02-03T09:58:49;95185.28;;;3.57;54.56
62978;BME280;49073;42.352;23.808;2023-02-03T10:12:07;95173.78;;;3.39;55.06
62978;BME280;49073;42.352;23.808;2023-02-03T10:15:36;95184.31;;;3.67;56.41
62978;BME280;49073;42.352;23.808;2023-02-03T10:18:44;95158.34;;;3.46;52.26
62978;BME280;49073;42.352;23.808;2023-02-03T10:21:51;95167.06;;;3.32;52.63
62978;BME280;49073;42.352;23.808;2023-02-03T10:24:56;95166.38;;;3.41;53.50
62978;BME280;49073;42.352;23.808;2023-02-03T10:28:02;95157.59;;;3.45;53.66
62978;BME280;49073;42.352;23.808;2023-02-03T10:31:12;95163.25;;;3.53;54.19
62978;BME280;49073;42.352;23.808;2023-02-03T10:34:17;95167.53;;;3.34;52.29
62978;BME280;49073;42.352;23.808;2023-02-03T10:37:29;95161.03;;;3.18;52.46
62978;BME280;49073;42.352;23.808;2023-02-03T10:40:31;95163.75;;;3.13;52.57
62978;BME280;49073;42.352;23.808;2023-02-03T10:43:32;95162.50;;;2.96;52.72
62978;BME280;49073;42.352;23.808;2023-02-03T10:46:50;95155.47;;;3.05;51.36
62978;BME280;49073;42.352;23.808;2023-02-03T10:49:52;95157.59;;;3.17;51.30
62978;BME280;49073;42.352;23.808;2023-02-03T10:56:16;95151.88;;;3.01;51.97
62978;BME280;49073;42.352;23.808;2023-02-03T10:59:34;95144.56;;;2.98;50.65
62978;BME280;49073;42.352;23.808;2023-02-03T11:02:35;95141.72;;;3.09;52.64
62978;BME280;49073;42.352;23.808;2023-02-03T11:05:36;95142.09;;;3.16;52.65
62978;BME280;49073;42.352;23.808;2023-02-03T11:08:39;95140.34;;;3.11;52.60
62978;BME280;49073;42.352;23.808;2023-02-03T11:11:40;95128.34;;;3.19;51.66
62978;BME280;49073;42.352;23.808;2023-02-03T11:14:51;95127.97;;;3.12;50.85
62978;BME280;49073;42.352;23.808;2023-02-03T11:17:52;95137.63;;;3.02;50.80
62978;BME280;49073;42.352;23.808;2023-02-03T11:20:52;95119.59;;;3.10;51.12
62978;BME280;49073;42.352;23.808;2023-02-03T11:24:02;95119.00;;;3.13;51.95
62978;BME280;49073;42.352;23.808;2023-02-03T11:27:30;95121.53;;;3.18;50.09
62978;BME280;49073;42.352;23.808;2023-02-03T11:30:32;95119.75;;;3.13;50.66
62978;BME280;49073;42.352;23.808;2023-02-03T11:33:33;95115.16;;;3.84;51.58
62978;BME280;49073;42.352;23.808;2023-02-03T11:36:34;95101.66;;;4.08;48.98
62978;BME280;49073;42.352;23.808;2023-02-03T11:39:35;95110.63;;;4.07;49.43
62978;BME280;49073;42.352;23.808;2023-02-03T11:42:40;95108.28;;;3.83;51.12
62978;BME280;49073;42.352;23.808;2023-02-03T11:45:43;95093.50;;;4.18;49.36
62978;BME280;49073;42.352;23.808;2023-02-03T11:49:24;95089.69;;;4.65;50.67
62978;BME280;49073;42.352;23.808;2023-02-03T12:05:57;95103.00;;;3.60;49.18
62978;BME280;49073;42.352;23.808;2023-02-03T12:12:33;95096.47;;;3.57;50.68
62978;BME280;49073;42.352;23.808;2023-02-03T12:15:57;95088.94;;;3.64;50.44
62978;BME280;49073;42.352;23.808;2023-02-03T12:22:49;95086.53;;;3.54;47.25
62978;BME280;49073;42.352;23.808;2023-02-03T12:26:02;95084.19;;;3.53;47.76
62978;BME280;49073;42.352;23.808;2023-02-03T12:29:14;95083.00;;;3.59;48.78
62978;BME280;49073;42.352;23.808;2023-02-03T12:32:24;95078.88;;;3.67;48.67
62978;BME280;49073;42.352;23.808;2023-02-03T12:35:32;95066.41;;;3.81;49.50
62978;BME280;49073;42.352;23.808;2023-02-03T12:38:38;95068.66;;;3.88;49.15
62978;BME280;49073;42.352;23.808;2023-02-03T12:41:59;95066.41;;;4.27;47.09
62978;BME280;49073;42.352;23.808;2023-02-03T12:45:23;95075.25;;;4.71;46.72
62978;BME280;49073;42.352;23.808;2023-02-03T12:48:53;95076.31;;;5.02;45.54
62978;BME280;49073;42.352;23.808;2023-02-03T12:51:59;95082.44;;;5.37;44.26
62978;BME280;49073;42.352;23.808;2023-02-03T12:55:17;95072.00;;;5.23;43.94
62978;BME280;49073;42.352;23.808;2023-02-03T12:58:40;95062.34;;;5.19;43.72
62978;BME280;49073;42.352;23.808;2023-02-03T13:01:51;95062.34;;;5.10;44.20
62978;BME280;49073;42.352;23.808;2023-02-03T13:05:21;95069.34;;;5.15;40.11
62978;BME280;49073;42.352;23.808;2023-02-03T13:08:36;95061.72;;;5.22;40.40
62978;BME280;49073;42.352;23.808;2023-02-03T13:14:51;95056.59;;;5.08;41.76
62978;BME280;49073;42.352;23.808;2023-02-03T13:18:18;95048.34;;;5.09;41.43
62978;BME280;49073;42.352;23.808;2023-02-03T13:21:20;95046.94;;;5.03;39.81
62978;BME280;49073;42.352;23.808;2023-02-03T13:24:24;95040.38;;;4.83;39.82
62978;BME280;49073;42.352;23.808;2023-02-03T13:30:54;95037.50;;;4.62;41.06
62978;BME280;49073;42.352;23.808;2023-02-03T13:34:25;95044.66;;;4.70;42.49
62978;BME280;49073;42.352;23.808;2023-02-03T13:44:12;95065.63;;;4.66;43.18
62978;BME280;49073;42.352;23.808;2023-02-03T13:47:25;95051.50;;;4.71;44.00
62978;BME280;49073;42.352;23.808;2023-02-03T13:50:29;95062.22;;;4.66;43.61
62978;BME280;49073;42.352;23.808;2023-02-03T13:53:34;95061.88;;;4.27;42.13
62978;BME280;49073;42.352;23.808;2023-02-03T13:56:37;95055.66;;;4.23;42.68
62978;BME280;49073;42.352;23.808;2023-02-03T13:59:41;95059.25;;;4.27;43.96
62978;BME280;49073;42.352;23.808;2023-02-03T14:02:51;95053.47;;;4.16;43.53
62978;BME280;49073;42.352;23.808;2023-02-03T14:05:56;95062.06;;;4.31;44.12
62978;BME280;49073;42.352;23.808;2023-02-03T14:08:58;95059.59;;;4.34;44.25
62978;BME280;49073;42.352;23.808;2023-02-03T14:12:16;95058.38;;;4.41;43.90
62978;BME280;49073;42.352;23.808;2023-02-03T14:18:31;95057.47;;;4.45;43.92
62978;BME280;49073;42.352;23.808;2023-02-03T14:21:53;95045.84;;;4.46;43.77
62978;BME280;49073;42.352;23.808;2023-02-03T14:24:55;95052.94;;;4.37;43.65
62978;BME280;49073;42.352;23.808;2023-02-03T14:28:06;95064.72;;;4.31;43.99
62978;BME280;49073;42.352;23.808;2023-02-03T14:34:16;95056.22;;;3.88;45.27
62978;BME280;49073;42.352;23.808;2023-02-03T14:37:26;95068.50;;;3.70;45.53
62978;BME280;49073;42.352;23.808;2023-02-03T14:43:44;95060.19;;;3.54;44.20
62978;BME280;49073;42.352;23.808;2023-02-03T14:54:32;95054.59;;;3.33;45.33
62978;BME280;49073;42.352;23.808;2023-02-03T14:57:52;95062.19;;;3.20;45.90
62978;BME280;49073;42.352;23.808;2023-02-03T15:00:53;95049.09;;;3.07;47.17
62978;BME280;49073;42.352;23.808;2023-02-03T15:07:36;95056.69;;;2.94;45.47
62978;BME280;49073;42.352;23.808;2023-02-03T15:10:44;95052.00;;;2.91;45.14
62978;BME280;49073;42.352;23.808;2023-02-03T15:13:44;95045.59;;;2.83;44.32
62978;BME280;49073;42.352;23.808;2023-02-03T15:16:51;95063.63;;;2.76;44.87
62978;BME280;49073;42.352;23.808;2023-02-03T15:19:53;95051.66;;;2.70;45.76
62978;BME280;49073;42.352;23.808;2023-02-03T15:22:54;95047.75;;;2.67;45.65
62978;BME280;49073;42.352;23.808;2023-02-03T15:25:59;95037.41;;;2.57;46.53
62978;BME280;49073;42.352;23.808;2023-02-03T15:29:03;95046.66;;;2.54;47.03
62978;BME280;49073;42.352;23.808;2023-02-03T15:32:11;95043.47;;;2.43;46.73
62978;BME280;49073;42.352;23.808;2023-02-03T15:35:17;95047.94;;;2.43;46.97
62978;BME280;49073;42.352;23.808;2023-02-03T15:38:28;95039.38;;;2.37;46.80
62978;BME280;49073;42.352;23.808;2023-02-03T15:41:30;95027.84;;;2.33;48.20
62978;BME280;49073;42.352;23.808;2023-02-03T15:44:38;95025.22;;;2.19;48.54
62978;BME280;49073;42.352;23.808;2023-02-03T15:47:51;95026.78;;;2.20;48.89
62978;BME280;49073;42.352;23.808;2023-02-03T15:51:01;95017.22;;;2.10;49.47
62978;BME280;49073;42.352;23.808;2023-02-03T16:00:29;94997.94;;;2.15;50.98
62978;BME280;49073;42.352;23.808;2023-02-03T16:03:47;95000.09;;;2.13;50.80
62978;BME280;49073;42.352;23.808;2023-02-03T16:06:53;94988.13;;;2.07;51.61
62978;BME280;49073;42.352;23.808;2023-02-03T16:09:56;94992.31;;;2.08;51.71
62978;BME280;49073;42.352;23.808;2023-02-03T16:13:23;94996.75;;;2.07;51.90
62978;BME280;49073;42.352;23.808;2023-02-03T16:19:33;94992.84;;;2.04;52.55
62978;BME280;49073;42.352;23.808;2023-02-03T16:25:37;94967.72;;;1.84;53.29
62978;BME280;49073;42.352;23.808;2023-02-03T16:28:38;94966.25;;;1.78;53.68
62978;BME280;49073;42.352;23.808;2023-02-03T16:31:58;94960.00;;;1.74;54.13
62978;BME280;49073;42.352;23.808;2023-02-03T16:35:17;94962.22;;;1.67;54.74
62978;BME280;49073;42.352;23.808;2023-02-03T16:38:36;94959.31;;;1.68;55.12
62978;BME280;49073;42.352;23.808;2023-02-03T16:41:59;94958.03;;;1.52;55.63
62978;BME280;49073;42.352;23.808;2023-02-03T16:45:18;94955.84;;;1.40;56.89
62978;BME280;49073;42.352;23.808;2023-02-03T16:48:36;94948.53;;;1.37;56.92
62978;BME280;49073;42.352;23.808;2023-02-03T16:51:55;94947.00;;;1.36;57.24
62978;BME280;49073;42.352;23.808;2023-02-03T16:54:56;94941.53;;;1.32;57.69
62978;BME280;49073;42.352;23.808;2023-02-03T16:57:57;94931.97;;;1.22;58.14
62978;BME280;49073;42.352;23.808;2023-02-03T17:01:01;94929.84;;;1.24;58.08
62978;BME280;49073;42.352;23.808;2023-02-03T17:04:03;94929.63;;;1.21;58.52
62978;BME280;49073;42.352;23.808;2023-02-03T17:07:03;94930.94;;;1.04;58.96
62978;BME280;49073;42.352;23.808;2023-02-03T17:10:04;94920.44;;;1.04;58.52
62978;BME280;49073;42.352;23.808;2023-02-03T17:13:06;94922.56;;;1.02;59.01
62978;BME280;49073;42.352;23.808;2023-02-03T17:16:21;94912.22;;;0.92;59.31
62978;BME280;49073;42.352;23.808;2023-02-03T17:19:22;94926.41;;;0.91;59.29
62978;BME280;49073;42.352;23.808;2023-02-03T17:22:22;94916.19;;;0.89;58.81
62978;BME280;49073;42.352;23.808;2023-02-03T17:25:23;94913.47;;;0.94;59.02
62978;BME280;49073;42.352;23.808;2023-02-03T17:28:23;94911.78;;;0.84;58.87
62978;BME280;49073;42.352;23.808;2023-02-03T17:31:24;94908.38;;;0.84;58.13
62978;BME280;49073;42.352;23.808;2023-02-03T17:34:25;94911.50;;;0.86;58.35
62978;BME280;49073;42.352;23.808;2023-02-03T17:37:25;94895.06;;;0.80;57.95
62978;BME280;49073;42.352;23.808;2023-02-03T17:40:26;94901.44;;;0.74;57.65
62978;BME280;49073;42.352;23.808;2023-02-03T17:43:27;94896.50;;;0.72;57.38
62978;BME280;49073;42.352;23.808;2023-02-03T17:46:32;94881.16;;;0.80;56.46
62978;BME280;49073;42.352;23.808;2023-02-03T17:49:33;94883.78;;;0.80;56.90
62978;BME280;49073;42.352;23.808;2023-02-03T17:52:34;94877.56;;;0.76;56.40